Aviation Digital Data Service (ADDS)

Output produced by METARs form (2033 UTC 20 August 2019)
found at http://www.aviationweather.gov/metar/data/
 
METAR text: RJOP 200942Z 32004KT 9999 SCT025 SCT080 BKN160 28/26 Q1009 RETS RMK 3CU025 4AC080 5AC160 A2982
Conditions at: RJOP (KOMATSUJIMA (JAS, JP) observed 0942 UTC 20 August 2019
Temperature: 28.0°C (82°F)
Dewpoint: 26.0°C (79°F) [RH = 89%]
Pressure (altimeter): 29.79 inches Hg (1009.0 mb)
Winds: from the NW (320 degrees) at 5 MPH (4 knots; 2.1 m/s)
Visibility: 6 or more miles (10+ km)
Ceiling: 16000 feet AGL
Clouds: scattered clouds at 2500 feet AGL
scattered clouds at 8000 feet AGL
broken clouds at 16000 feet AGL
Weather: no significant weather observed at this time

METAR text: RJOP 200910Z 33004KT 9999 TS SCT025 FEW025CB BKN180 BKN/// 28/26 Q1009 RMK 4CU025 1CB025 6AC180 A2982 FBL TS 20KM W MOV E
Conditions at: RJOP (KOMATSUJIMA (JAS, JP) observed 0910 UTC 20 August 2019
Temperature: 28.0°C (82°F)
Dewpoint: 26.0°C (79°F) [RH = 89%]
Pressure (altimeter): 29.79 inches Hg (1009.0 mb)
Winds: from the NNW (330 degrees) at 5 MPH (4 knots; 2.1 m/s)
Visibility: 6 or more miles (10+ km)
Ceiling: 18000 feet AGL
Clouds: scattered clouds at 2500 feet AGL
few clouds at 2500 feet AGL
broken clouds at 18000 feet AGL
Weather: TS  (thunderstorm)